sensor_id;sensor_type;location;lat;lon;timestamp;pressure;altitude;pressure_sealevel;temperature;humidity
28927;BME280;16038;47.692;9.400;2023-05-09T00:01:41;96894.75;;;13.20;100.00
28927;BME280;16038;47.692;9.400;2023-05-09T00:04:09;96892.38;;;13.19;100.00
28927;BME280;16038;47.692;9.400;2023-05-09T00:06:35;96887.22;;;13.14;100.00
28927;BME280;16038;47.692;9.400;2023-05-09T00:09:01;96885.59;;;13.06;100.00
28927;BME280;16038;47.692;9.400;2023-05-09T00:11:26;96880.84;;;13.03;100.00
28927;BME280;16038;47.692;9.400;2023-05-09T00:13:52;96878.47;;;13.01;100.00
28927;BME280;16038;47.692;9.400;2023-05-09T00:16:17;96880.75;;;12.92;100.00
28927;BME280;16038;47.692;9.400;2023-05-09T00:18:44;96885.06;;;12.89;100.00
28927;BME280;16038;47.692;9.400;2023-05-09T00:21:11;96884.22;;;12.89;100.00
28927;BME280;16038;47.692;9.400;2023-05-09T00:23:36;96883.75;;;12.79;100.00
28927;BME280;16038;47.692;9.400;2023-05-09T00:26:02;96893.16;;;12.75;100.00
28927;BME280;16038;47.692;9.400;2023-05-09T00:28:27;96883.31;;;12.74;100.00
28927;BME280;16038;47.692;9.400;2023-05-09T00:30:52;96885.78;;;12.86;100.00
28927;BME280;16038;47.692;9.400;2023-05-09T00:33:18;96889.00;;;12.92;100.00
28927;BME280;16038;47.692;9.400;2023-05-09T00:35:43;96878.97;;;12.73;100.00
28927;BME280;16038;47.692;9.400;2023-05-09T00:38:08;96872.69;;;12.72;100.00
28927;BME280;16038;47.692;9.400;2023-05-09T00:40:34;96870.28;;;12.67;100.00
28927;BME280;16038;47.692;9.400;2023-05-09T00:42:59;96861.94;;;12.60;100.00
28927;BME280;16038;47.692;9.400;2023-05-09T00:45:25;96863.25;;;12.70;100.00
28927;BME280;16038;47.692;9.400;2023-05-09T00:47:50;96866.66;;;12.59;100.00
28927;BME280;16038;47.692;9.400;2023-05-09T00:50:15;96868.22;;;12.57;100.00
28927;BME280;16038;47.692;9.400;2023-05-09T00:52:41;96863.16;;;12.62;100.00
28927;BME280;16038;47.692;9.400;2023-05-09T00:55:07;96868.25;;;12.60;100.00
28927;BME280;16038;47.692;9.400;2023-05-09T00:57:32;96865.53;;;12.64;100.00
28927;BME280;16038;47.692;9.400;2023-05-09T00:59:58;96860.75;;;12.57;100.00
28927;BME280;16038;47.692;9.400;2023-05-09T01:02:24;96863.88;;;12.56;100.00
28927;BME280;16038;47.692;9.400;2023-05-09T01:04:49;96861.94;;;12.60;100.00
28927;BME280;16038;47.692;9.400;2023-05-09T01:07:21;96859.94;;;12.53;100.00
28927;BME280;16038;47.692;9.400;2023-05-09T01:09:51;96853.97;;;12.48;100.00
28927;BME280;16038;47.692;9.400;2023-05-09T01:12:30;96844.94;;;12.47;100.00
28927;BME280;16038;47.692;9.400;2023-05-09T01:15:01;96847.31;;;12.49;100.00
28927;BME280;16038;47.692;9.400;2023-05-09T01:17:30;96848.09;;;12.49;100.00
28927;BME280;16038;47.692;9.400;2023-05-09T01:20:11;96844.19;;;12.50;100.00
28927;BME280;16038;47.692;9.400;2023-05-09T01:22:49;96840.63;;;12.46;100.00
28927;BME280;16038;47.692;9.400;2023-05-09T01:30:20;96848.53;;;12.55;100.00
28927;BME280;16038;47.692;9.400;2023-05-09T01:32:47;96840.97;;;12.78;100.00
28927;BME280;16038;47.692;9.400;2023-05-09T01:35:14;96836.78;;;12.95;100.00
28927;BME280;16038;47.692;9.400;2023-05-09T01:37:41;96836.84;;;13.03;100.00
28927;BME280;16038;47.692;9.400;2023-05-09T01:40:07;96836.88;;;13.06;100.00
28927;BME280;16038;47.692;9.400;2023-05-09T01:42:38;96840.81;;;13.09;100.00
28927;BME280;16038;47.692;9.400;2023-05-09T01:45:05;96832.03;;;12.92;100.00
28927;BME280;16038;47.692;9.400;2023-05-09T01:47:32;96824.13;;;12.87;100.00
28927;BME280;16038;47.692;9.400;2023-05-09T01:49:57;96826.44;;;12.81;100.00
28927;BME280;16038;47.692;9.400;2023-05-09T01:52:25;96816.94;;;12.72;100.00
28927;BME280;16038;47.692;9.400;2023-05-09T01:54:51;96814.56;;;12.70;100.00
28927;BME280;16038;47.692;9.400;2023-05-09T01:57:16;96828.78;;;12.79;100.00
28927;BME280;16038;47.692;9.400;2023-05-09T01:59:43;96830.84;;;12.90;100.00
28927;BME280;16038;47.692;9.400;2023-05-09T02:02:08;96832.53;;;13.05;100.00
28927;BME280;16038;47.692;9.400;2023-05-09T02:04:34;96834.56;;;13.12;100.00
28927;BME280;16038;47.692;9.400;2023-05-09T02:07:00;96830.25;;;13.11;100.00
28927;BME280;16038;47.692;9.400;2023-05-09T02:09:25;96832.59;;;13.12;100.00
28927;BME280;16038;47.692;9.400;2023-05-09T02:11:51;96828.28;;;13.11;100.00
28927;BME280;16038;47.692;9.400;2023-05-09T02:14:16;96828.34;;;13.18;100.00
28927;BME280;16038;47.692;9.400;2023-05-09T02:16:41;96819.88;;;13.34;100.00
28927;BME280;16038;47.692;9.400;2023-05-09T02:19:07;96824.56;;;13.34;100.00
28927;BME280;16038;47.692;9.400;2023-05-09T02:21:32;96826.56;;;13.37;100.00
28927;BME280;16038;47.692;9.400;2023-05-09T02:23:58;96829.97;;;13.27;100.00
28927;BME280;16038;47.692;9.400;2023-05-09T02:26:24;96827.59;;;13.25;100.00
28927;BME280;16038;47.692;9.400;2023-05-09T02:28:50;96826.41;;;13.23;100.00
28927;BME280;16038;47.692;9.400;2023-05-09T02:31:15;96825.63;;;13.22;100.00
28927;BME280;16038;47.692;9.400;2023-05-09T02:33:43;96820.53;;;13.24;100.00
28927;BME280;16038;47.692;9.400;2023-05-09T02:36:09;96818.91;;;13.19;100.00
28927;BME280;16038;47.692;9.400;2023-05-09T02:38:35;96815.97;;;12.98;100.00
28927;BME280;16038;47.692;9.400;2023-05-09T02:41:01;96805.53;;;12.70;100.00
28927;BME280;16038;47.692;9.400;2023-05-09T02:43:27;96807.47;;;12.69;100.00
28927;BME280;16038;47.692;9.400;2023-05-09T02:45:52;96805.22;;;12.78;100.00
28927;BME280;16038;47.692;9.400;2023-05-09T02:48:17;96809.59;;;12.87;100.00
28927;BME280;16038;47.692;9.400;2023-05-09T02:50:42;96798.97;;;12.81;100.00
28927;BME280;16038;47.692;9.400;2023-05-09T02:53:10;96795.25;;;12.63;100.00
28927;BME280;16038;47.692;9.400;2023-05-09T02:55:35;96788.56;;;12.60;100.00
28927;BME280;16038;47.692;9.400;2023-05-09T02:58:01;96793.66;;;12.62;100.00
28927;BME280;16038;47.692;9.400;2023-05-09T03:00:26;96794.28;;;12.45;100.00
28927;BME280;16038;47.692;9.400;2023-05-09T03:02:52;96797.50;;;12.50;100.00
28927;BME280;16038;47.692;9.400;2023-05-09T03:05:17;96794.84;;;12.61;100.00
28927;BME280;16038;47.692;9.400;2023-05-09T03:07:43;96790.63;;;12.71;100.00
28927;BME280;16038;47.692;9.400;2023-05-09T03:10:09;96793.06;;;12.79;100.00
28927;BME280;16038;47.692;9.400;2023-05-09T03:12:36;96787.97;;;12.81;100.00
28927;BME280;16038;47.692;9.400;2023-05-09T03:15:02;96784.16;;;12.93;100.00
28927;BME280;16038;47.692;9.400;2023-05-09T03:17:28;96792.50;;;13.08;100.00
28927;BME280;16038;47.692;9.400;2023-05-09T03:19:53;96783.13;;;13.16;100.00
28927;BME280;16038;47.692;9.400;2023-05-09T03:22:18;96783.53;;;13.18;100.00
28927;BME280;16038;47.692;9.400;2023-05-09T03:24:44;96781.56;;;13.15;100.00
28927;BME280;16038;47.692;9.400;2023-05-09T03:27:09;96792.63;;;13.22;100.00
28927;BME280;16038;47.692;9.400;2023-05-09T03:29:34;96791.91;;;13.32;100.00
28927;BME280;16038;47.692;9.400;2023-05-09T03:31:59;96784.47;;;13.33;100.00
28927;BME280;16038;47.692;9.400;2023-05-09T03:34:25;96789.59;;;13.31;100.00
28927;BME280;16038;47.692;9.400;2023-05-09T03:36:50;96796.22;;;13.30;100.00
28927;BME280;16038;47.692;9.400;2023-05-09T03:39:15;96782.91;;;13.35;100.00
28927;BME280;16038;47.692;9.400;2023-05-09T03:41:41;96786.94;;;13.45;100.00
28927;BME280;16038;47.692;9.400;2023-05-09T03:44:07;96772.41;;;13.52;100.00
28927;BME280;16038;47.692;9.400;2023-05-09T03:46:32;96772.81;;;13.54;100.00
28927;BME280;16038;47.692;9.400;2023-05-09T03:48:58;96774.63;;;13.32;100.00
28927;BME280;16038;47.692;9.400;2023-05-09T03:51:23;96769.78;;;13.18;100.00
28927;BME280;16038;47.692;9.400;2023-05-09T03:53:49;96770.09;;;13.02;100.00
28927;BME280;16038;47.692;9.400;2023-05-09T03:56:14;96769.72;;;13.04;100.00
28927;BME280;16038;47.692;9.400;2023-05-09T03:58:39;96765.38;;;13.03;100.00
28927;BME280;16038;47.692;9.400;2023-05-09T04:01:04;96768.94;;;13.10;100.00
28927;BME280;16038;47.692;9.400;2023-05-09T04:03:30;96774.81;;;13.05;100.00
28927;BME280;16038;47.692;9.400;2023-05-09T04:05:55;96767.00;;;13.07;100.00
28927;BME280;16038;47.692;9.400;2023-05-09T04:08:21;96769.75;;;13.11;100.00
28927;BME280;16038;47.692;9.400;2023-05-09T04:10:48;96765.94;;;13.26;100.00
28927;BME280;16038;47.692;9.400;2023-05-09T04:13:14;96771.81;;;13.25;100.00
28927;BME280;16038;47.692;9.400;2023-05-09T04:15:40;96762.06;;;13.31;100.00
28927;BME280;16038;47.692;9.400;2023-05-09T04:18:06;96770.75;;;13.36;100.00
28927;BME280;16038;47.692;9.400;2023-05-09T04:20:31;96770.66;;;13.26;100.00
28927;BME280;16038;47.692;9.400;2023-05-09T04:22:56;96765.66;;;13.38;100.00
28927;BME280;16038;47.692;9.400;2023-05-09T04:25:23;96765.75;;;13.53;100.00
28927;BME280;16038;47.692;9.400;2023-05-09T04:27:48;96761.06;;;13.61;100.00
28927;BME280;16038;47.692;9.400;2023-05-09T04:30:13;96762.59;;;13.54;100.00
28927;BME280;16038;47.692;9.400;2023-05-09T04:32:39;96761.06;;;13.61;100.00
28927;BME280;16038;47.692;9.400;2023-05-09T04:35:04;96762.69;;;13.72;100.00
28927;BME280;16038;47.692;9.400;2023-05-09T04:37:30;96768.63;;;13.82;100.00
28927;BME280;16038;47.692;9.400;2023-05-09T04:39:57;96760.78;;;13.87;100.00
28927;BME280;16038;47.692;9.400;2023-05-09T04:42:22;96769.41;;;13.82;100.00
28927;BME280;16038;47.692;9.400;2023-05-09T04:44:47;96760.69;;;13.62;100.00
28927;BME280;16038;47.692;9.400;2023-05-09T04:47:13;96760.22;;;13.53;100.00
28927;BME280;16038;47.692;9.400;2023-05-09T04:49:38;96759.91;;;13.65;100.00
28927;BME280;16038;47.692;9.400;2023-05-09T04:52:04;96764.28;;;13.77;100.00
28927;BME280;16038;47.692;9.400;2023-05-09T04:54:29;96769.38;;;13.71;100.00
28927;BME280;16038;47.692;9.400;2023-05-09T04:56:54;96771.69;;;13.66;100.00
28927;BME280;16038;47.692;9.400;2023-05-09T04:59:20;96763.09;;;13.71;100.00
28927;BME280;16038;47.692;9.400;2023-05-09T05:01:45;96764.41;;;13.32;100.00
28927;BME280;16038;47.692;9.400;2023-05-09T05:04:10;96759.41;;;13.45;100.00
28927;BME280;16038;47.692;9.400;2023-05-09T05:06:35;96764.03;;;13.34;100.00
28927;BME280;16038;47.692;9.400;2023-05-09T05:09:01;96765.56;;;13.28;100.00
28927;BME280;16038;47.692;9.400;2023-05-09T05:11:26;96769.78;;;13.18;100.00
28927;BME280;16038;47.692;9.400;2023-05-09T05:13:51;96765.34;;;12.99;100.00
28927;BME280;16038;47.692;9.400;2023-05-09T05:16:17;96761.50;;;13.07;100.00
28927;BME280;16038;47.692;9.400;2023-05-09T05:18:42;96763.56;;;13.25;100.00
28927;BME280;16038;47.692;9.400;2023-05-09T05:21:07;96763.09;;;13.15;100.00
28927;BME280;16038;47.692;9.400;2023-05-09T05:23:33;96763.88;;;13.16;100.00
28927;BME280;16038;47.692;9.400;2023-05-09T05:25:58;96759.91;;;13.06;100.00
28927;BME280;16038;47.692;9.400;2023-05-09T05:28:23;96756.72;;;13.00;100.00
28927;BME280;16038;47.692;9.400;2023-05-09T05:30:48;96764.84;;;12.86;100.00
28927;BME280;16038;47.692;9.400;2023-05-09T05:33:14;96767.25;;;12.91;100.00
28927;BME280;16038;47.692;9.400;2023-05-09T05:35:39;96768.91;;;13.03;100.00
28927;BME280;16038;47.692;9.400;2023-05-09T05:38:04;96758.66;;;12.96;100.00
28927;BME280;16038;47.692;9.400;2023-05-09T05:40:29;96771.97;;;12.94;100.00
28927;BME280;16038;47.692;9.400;2023-05-09T05:42:55;96771.22;;;12.97;100.00
28927;BME280;16038;47.692;9.400;2023-05-09T05:45:20;96780.66;;;12.96;100.00
28927;BME280;16038;47.692;9.400;2023-05-09T05:47:45;96777.22;;;13.14;100.00
28927;BME280;16038;47.692;9.400;2023-05-09T05:50:11;96777.84;;;12.89;100.00
28927;BME280;16038;47.692;9.400;2023-05-09T05:52:37;96775.88;;;12.90;100.00
28927;BME280;16038;47.692;9.400;2023-05-09T05:55:03;96763.56;;;12.76;100.00
28927;BME280;16038;47.692;9.400;2023-05-09T05:57:28;96768.31;;;12.79;100.00
28927;BME280;16038;47.692;9.400;2023-05-09T05:59:53;96763.72;;;12.94;100.00
28927;BME280;16038;47.692;9.400;2023-05-09T06:02:19;96767.00;;;13.07;100.00
28927;BME280;16038;47.692;9.400;2023-05-09T06:04:44;96764.75;;;13.24;100.00
28927;BME280;16038;47.692;9.400;2023-05-09T06:07:09;96754.16;;;13.29;100.00
28927;BME280;16038;47.692;9.400;2023-05-09T06:09:35;96752.78;;;13.01;100.00
28927;BME280;16038;47.692;9.400;2023-05-09T06:12:01;96754.13;;;13.22;100.00
28927;BME280;16038;47.692;9.400;2023-05-09T06:14:26;96748.84;;;13.54;100.00
28927;BME280;16038;47.692;9.400;2023-05-09T06:16:52;96755.34;;;13.28;100.00
28927;BME280;16038;47.692;9.400;2023-05-09T06:19:17;96747.63;;;13.52;100.00
28927;BME280;16038;47.692;9.400;2023-05-09T06:21:42;96748.47;;;13.56;100.00
28927;BME280;16038;47.692;9.400;2023-05-09T06:24:07;96744.38;;;13.32;100.00
28927;BME280;16038;47.692;9.400;2023-05-09T06:26:33;96737.66;;;13.29;100.00
28927;BME280;16038;47.692;9.400;2023-05-09T06:28:58;96740.63;;;13.58;100.00
28927;BME280;16038;47.692;9.400;2023-05-09T06:31:23;96738.41;;;13.96;100.00
28927;BME280;16038;47.692;9.400;2023-05-09T06:33:49;96732.50;;;13.87;100.00
28927;BME280;16038;47.692;9.400;2023-05-09T06:36:14;96738.84;;;14.09;100.00
28927;BME280;16038;47.692;9.400;2023-05-09T06:38:40;96736.59;;;14.54;100.00
28927;BME280;16038;47.692;9.400;2023-05-09T06:41:05;96729.06;;;14.37;100.00
28927;BME280;16038;47.692;9.400;2023-05-09T06:43:30;96728.34;;;14.65;100.00
28927;BME280;16038;47.692;9.400;2023-05-09T06:45:56;96728.38;;;14.76;100.00
28927;BME280;16038;47.692;9.400;2023-05-09T06:48:21;96727.19;;;15.13;100.00
28927;BME280;16038;47.692;9.400;2023-05-09T06:50:48;96732.63;;;15.48;100.00
28927;BME280;16038;47.692;9.400;2023-05-09T06:53:13;96728.31;;;15.44;100.00
28927;BME280;16038;47.692;9.400;2023-05-09T06:55:39;96727.09;;;15.59;100.00
28927;BME280;16038;47.692;9.400;2023-05-09T06:58:04;96721.84;;;15.94;100.00
28927;BME280;16038;47.692;9.400;2023-05-09T07:00:29;96723.69;;;16.22;100.00
28927;BME280;16038;47.692;9.400;2023-05-09T07:02:55;96716.50;;;16.39;100.00
28927;BME280;16038;47.692;9.400;2023-05-09T07:05:20;96712.03;;;16.56;100.00
28927;BME280;16038;47.692;9.400;2023-05-09T07:07:45;96713.81;;;16.80;100.00
28927;BME280;16038;47.692;9.400;2023-05-09T07:10:11;96712.81;;;17.09;100.00
28927;BME280;16038;47.692;9.400;2023-05-09T07:12:36;96709.44;;;16.87;100.00
28927;BME280;16038;47.692;9.400;2023-05-09T07:15:01;96706.13;;;16.54;100.00
28927;BME280;16038;47.692;9.400;2023-05-09T07:17:27;96704.34;;;16.18;100.00
28927;BME280;16038;47.692;9.400;2023-05-09T07:19:54;96689.47;;;16.61;100.00
28927;BME280;16038;47.692;9.400;2023-05-09T07:22:20;96700.31;;;16.34;100.00
28927;BME280;16038;47.692;9.400;2023-05-09T07:24:45;96699.53;;;15.45;100.00
28927;BME280;16038;47.692;9.400;2023-05-09T07:27:10;96694.34;;;15.58;100.00
28927;BME280;16038;47.692;9.400;2023-05-09T07:29:35;96697.03;;;15.86;100.00
28927;BME280;16038;47.692;9.400;2023-05-09T07:32:01;96688.25;;;16.02;100.00
28927;BME280;16038;47.692;9.400;2023-05-09T07:34:26;96686.31;;;15.99;100.00
28927;BME280;16038;47.692;9.400;2023-05-09T07:36:51;96685.56;;;15.88;100.00
28927;BME280;16038;47.692;9.400;2023-05-09T07:39:16;96672.88;;;16.05;100.00
28927;BME280;16038;47.692;9.400;2023-05-09T07:41:42;96672.88;;;16.05;100.00
28927;BME280;16038;47.692;9.400;2023-05-09T07:44:07;96665.06;;;16.49;100.00
28927;BME280;16038;47.692;9.400;2023-05-09T07:46:35;96670.88;;;16.65;100.00
28927;BME280;16038;47.692;9.400;2023-05-09T07:49:02;96665.34;;;16.65;100.00
28927;BME280;16038;47.692;9.400;2023-05-09T07:51:27;96672.94;;;15.91;100.00
28927;BME280;16038;47.692;9.400;2023-05-09T07:53:53;96669.84;;;15.71;100.00
28927;BME280;16038;47.692;9.400;2023-05-09T07:56:20;96666.59;;;15.97;100.00
28927;BME280;16038;47.692;9.400;2023-05-09T07:58:46;96656.72;;;16.56;100.00
28927;BME280;16038;47.692;9.400;2023-05-09T08:01:12;96656.50;;;17.26;100.00
28927;BME280;16038;47.692;9.400;2023-05-09T08:03:37;96654.66;;;17.50;100.00
28927;BME280;16038;47.692;9.400;2023-05-09T08:06:02;96653.13;;;17.76;100.00
28927;BME280;16038;47.692;9.400;2023-05-09T08:08:28;96652.00;;;18.05;100.00
28927;BME280;16038;47.692;9.400;2023-05-09T08:10:53;96654.09;;;17.63;100.00
28927;BME280;16038;47.692;9.400;2023-05-09T08:13:19;96646.47;;;17.74;100.00
28927;BME280;16038;47.692;9.400;2023-05-09T08:15:46;96641.97;;;18.14;100.00
28927;BME280;16038;47.692;9.400;2023-05-09T08:18:11;96639.03;;;17.98;100.00
28927;BME280;16038;47.692;9.400;2023-05-09T08:20:36;96639.84;;;18.26;100.00
28927;BME280;16038;47.692;9.400;2023-05-09T08:23:02;96640.09;;;18.08;100.00
28927;BME280;16038;47.692;9.400;2023-05-09T08:25:27;96630.69;;;18.76;100.00
28927;BME280;16038;47.692;9.400;2023-05-09T08:27:53;96632.50;;;19.10;100.00
28927;BME280;16038;47.692;9.400;2023-05-09T08:30:19;96630.84;;;19.56;100.00
28927;BME280;16038;47.692;9.400;2023-05-09T08:32:44;96626.75;;;20.01;99.49
28927;BME280;16038;47.692;9.400;2023-05-09T08:35:09;96621.75;;;20.29;95.26
28927;BME280;16038;47.692;9.400;2023-05-09T08:37:35;96617.69;;;20.83;92.93
28927;BME280;16038;47.692;9.400;2023-05-09T08:40:01;96618.81;;;21.60;84.27
28927;BME280;16038;47.692;9.400;2023-05-09T08:42:28;96610.91;;;21.71;79.82
28927;BME280;16038;47.692;9.400;2023-05-09T08:44:54;96614.22;;;20.78;89.79
28927;BME280;16038;47.692;9.400;2023-05-09T08:47:19;96609.81;;;19.75;89.88
28927;BME280;16038;47.692;9.400;2023-05-09T08:49:46;96600.81;;;20.40;88.85
28927;BME280;16038;47.692;9.400;2023-05-09T08:52:11;96602.44;;;20.54;82.36
28927;BME280;16038;47.692;9.400;2023-05-09T08:54:37;96606.13;;;21.43;78.24
28927;BME280;16038;47.692;9.400;2023-05-09T08:57:02;96602.47;;;19.85;82.51
28927;BME280;16038;47.692;9.400;2023-05-09T08:59:28;96606.47;;;19.44;86.53
28927;BME280;16038;47.692;9.400;2023-05-09T09:01:54;96595.50;;;18.73;88.76
28927;BME280;16038;47.692;9.400;2023-05-09T09:04:21;96595.31;;;19.27;89.96
28927;BME280;16038;47.692;9.400;2023-05-09T09:06:46;96582.19;;;20.54;85.04
28927;BME280;16038;47.692;9.400;2023-05-09T09:09:12;96577.06;;;21.44;79.93
28927;BME280;16038;47.692;9.400;2023-05-09T09:11:38;96581.19;;;21.81;72.25
28927;BME280;16038;47.692;9.400;2023-05-09T09:14:11;96579.94;;;21.40;76.77
28927;BME280;16038;47.692;9.400;2023-05-09T09:16:37;96579.75;;;23.23;64.88
28927;BME280;16038;47.692;9.400;2023-05-09T09:19:06;96575.00;;;24.09;57.11
28927;BME280;16038;47.692;9.400;2023-05-09T09:21:35;96577.44;;;21.16;68.74
28927;BME280;16038;47.692;9.400;2023-05-09T09:24:01;96569.75;;;21.20;67.40
28927;BME280;16038;47.692;9.400;2023-05-09T09:26:27;96562.41;;;20.97;67.24
28927;BME280;16038;47.692;9.400;2023-05-09T09:28:56;96558.88;;;21.39;66.75
28927;BME280;16038;47.692;9.400;2023-05-09T09:31:22;96559.66;;;21.82;63.46
28927;BME280;16038;47.692;9.400;2023-05-09T09:33:47;96548.06;;;21.96;62.44
28927;BME280;16038;47.692;9.400;2023-05-09T09:36:13;96548.25;;;21.63;62.74
28927;BME280;16038;47.692;9.400;2023-05-09T09:38:42;96536.66;;;20.48;71.02
28927;BME280;16038;47.692;9.400;2023-05-09T09:41:08;96530.28;;;21.09;69.77
28927;BME280;16038;47.692;9.400;2023-05-09T09:43:35;96535.25;;;21.99;65.58
28927;BME280;16038;47.692;9.400;2023-05-09T09:46:01;96535.63;;;22.96;61.48
28927;BME280;16038;47.692;9.400;2023-05-09T09:48:29;96527.44;;;22.06;64.86
28927;BME280;16038;47.692;9.400;2023-05-09T09:50:56;96531.53;;;23.85;57.26
28927;BME280;16038;47.692;9.400;2023-05-09T09:53:21;96520.47;;;22.84;57.62
28927;BME280;16038;47.692;9.400;2023-05-09T09:55:51;96515.44;;;23.14;60.32
28927;BME280;16038;47.692;9.400;2023-05-09T09:58:17;96518.38;;;23.86;57.13
28927;BME280;16038;47.692;9.400;2023-05-09T10:00:43;96521.69;;;25.08;53.91
28927;BME280;16038;47.692;9.400;2023-05-09T10:03:13;96521.84;;;25.05;52.11
28927;BME280;16038;47.692;9.400;2023-05-09T10:05:39;96508.75;;;23.96;55.78
28927;BME280;16038;47.692;9.400;2023-05-09T10:08:05;96507.72;;;24.12;53.39
28927;BME280;16038;47.692;9.400;2023-05-09T10:10:33;96503.03;;;24.87;52.04
28927;BME280;16038;47.692;9.400;2023-05-09T10:13:00;96493.59;;;25.64;50.70
28927;BME280;16038;47.692;9.400;2023-05-09T10:15:26;96493.97;;;26.23;48.91
28927;BME280;16038;47.692;9.400;2023-05-09T10:17:56;96484.81;;;24.82;51.55
28927;BME280;16038;47.692;9.400;2023-05-09T10:20:21;96478.28;;;24.94;51.27
28927;BME280;16038;47.692;9.400;2023-05-09T10:22:47;96472.50;;;25.16;49.64
28927;BME280;16038;47.692;9.400;2023-05-09T10:25:13;96466.84;;;25.44;48.27
28927;BME280;16038;47.692;9.400;2023-05-09T10:27:43;96463.13;;;24.18;51.72
28927;BME280;16038;47.692;9.400;2023-05-09T10:32:41;96454.78;;;25.71;48.31
28927;BME280;16038;47.692;9.400;2023-05-09T10:35:10;96451.81;;;26.08;46.08
28927;BME280;16038;47.692;9.400;2023-05-09T10:37:37;96454.91;;;25.77;45.42
28927;BME280;16038;47.692;9.400;2023-05-09T10:40:03;96445.13;;;26.06;45.74
28927;BME280;16038;47.692;9.400;2023-05-09T10:42:29;96438.38;;;25.79;44.58
28927;BME280;16038;47.692;9.400;2023-05-09T10:44:55;96437.59;;;25.36;45.13
28927;BME280;16038;47.692;9.400;2023-05-09T10:47:20;96436.84;;;25.26;45.31
28927;BME280;16038;47.692;9.400;2023-05-09T10:49:46;96432.53;;;25.07;43.21
28927;BME280;16038;47.692;9.400;2023-05-09T10:52:13;96420.69;;;25.03;42.38
28927;BME280;16038;47.692;9.400;2023-05-09T10:54:38;96415.59;;;24.73;43.28
28927;BME280;16038;47.692;9.400;2023-05-09T10:57:04;96409.84;;;23.31;46.79
28927;BME280;16038;47.692;9.400;2023-05-09T10:59:40;96410.75;;;22.05;51.35
28927;BME280;16038;47.692;9.400;2023-05-09T11:02:12;96399.19;;;21.93;51.90
28927;BME280;16038;47.692;9.400;2023-05-09T11:04:38;96390.47;;;22.61;50.07
28927;BME280;16038;47.692;9.400;2023-05-09T11:07:05;96389.06;;;23.32;47.93
28927;BME280;16038;47.692;9.400;2023-05-09T11:09:45;96388.31;;;22.43;49.44
28927;BME280;16038;47.692;9.400;2023-05-09T11:12:15;96385.38;;;23.13;49.31
28927;BME280;16038;47.692;9.400;2023-05-09T11:14:43;96375.47;;;22.68;48.93
28927;BME280;16038;47.692;9.400;2023-05-09T11:17:10;96369.81;;;22.81;47.71
28927;BME280;16038;47.692;9.400;2023-05-09T11:22:29;96358.31;;;21.00;55.02
28927;BME280;16038;47.692;9.400;2023-05-09T11:27:25;96345.16;;;23.42;50.87
28927;BME280;16038;47.692;9.400;2023-05-09T11:32:16;96344.38;;;24.19;47.58
28927;BME280;16038;47.692;9.400;2023-05-09T11:34:42;96336.13;;;24.34;48.75
28927;BME280;16038;47.692;9.400;2023-05-09T11:37:09;96329.75;;;24.24;48.95
28927;BME280;16038;47.692;9.400;2023-05-09T11:39:35;96327.44;;;24.13;50.79
28927;BME280;16038;47.692;9.400;2023-05-09T11:42:18;96322.16;;;24.15;49.44
28927;BME280;16038;47.692;9.400;2023-05-09T11:44:44;96321.06;;;24.22;49.18
28927;BME280;16038;47.692;9.400;2023-05-09T11:47:12;96316.94;;;23.77;50.90
28927;BME280;16038;47.692;9.400;2023-05-09T11:49:41;96304.81;;;23.52;53.00
28927;BME280;16038;47.692;9.400;2023-05-09T11:52:06;96312.59;;;23.57;52.68
28927;BME280;16038;47.692;9.400;2023-05-09T11:54:31;96310.72;;;23.73;50.48
28927;BME280;16038;47.692;9.400;2023-05-09T11:56:57;96300.47;;;23.70;52.58
28927;BME280;16038;47.692;9.400;2023-05-09T11:59:23;96303.19;;;23.23;51.15
28927;BME280;16038;47.692;9.400;2023-05-09T12:01:49;96302.16;;;23.48;51.51
28927;BME280;16038;47.692;9.400;2023-05-09T12:04:14;96289.97;;;23.15;51.31
28927;BME280;16038;47.692;9.400;2023-05-09T12:06:45;96289.44;;;23.57;52.37
28927;BME280;16038;47.692;9.400;2023-05-09T12:09:10;96282.34;;;22.08;53.92
28927;BME280;16038;47.692;9.400;2023-05-09T12:11:36;96277.72;;;21.92;56.95
28927;BME280;16038;47.692;9.400;2023-05-09T12:14:02;96264.81;;;21.86;56.56
28927;BME280;16038;47.692;9.400;2023-05-09T12:16:27;96265.19;;;22.63;55.87
28927;BME280;16038;47.692;9.400;2023-05-09T12:18:53;96266.34;;;22.75;54.59
28927;BME280;16038;47.692;9.400;2023-05-09T12:21:19;96257.31;;;22.62;54.88
28927;BME280;16038;47.692;9.400;2023-05-09T12:23:45;96262.53;;;22.60;53.34
28927;BME280;16038;47.692;9.400;2023-05-09T12:26:11;96260.81;;;22.53;53.39
28927;BME280;16038;47.692;9.400;2023-05-09T12:28:36;96247.16;;;23.18;53.56
28927;BME280;16038;47.692;9.400;2023-05-09T12:31:02;96241.56;;;23.27;53.55
28927;BME280;16038;47.692;9.400;2023-05-09T12:33:28;96242.63;;;23.11;51.34
28927;BME280;16038;47.692;9.400;2023-05-09T12:36:01;96238.09;;;23.14;54.07
28927;BME280;16038;47.692;9.400;2023-05-09T12:38:27;96232.38;;;23.17;53.04
28927;BME280;16038;47.692;9.400;2023-05-09T12:41:02;96231.53;;;22.98;53.25
28927;BME280;16038;47.692;9.400;2023-05-09T12:43:28;96228.38;;;23.37;52.90
28927;BME280;16038;47.692;9.400;2023-05-09T12:45:54;96216.91;;;23.35;54.20
28927;BME280;16038;47.692;9.400;2023-05-09T12:48:21;96217.66;;;23.35;52.48
28927;BME280;16038;47.692;9.400;2023-05-09T12:50:47;96213.50;;;23.31;53.11
28927;BME280;16038;47.692;9.400;2023-05-09T12:53:12;96219.41;;;23.60;53.64
28927;BME280;16038;47.692;9.400;2023-05-09T12:55:38;96219.75;;;23.81;51.28
28927;BME280;16038;47.692;9.400;2023-05-09T12:58:07;96200.44;;;23.37;53.53
28927;BME280;16038;47.692;9.400;2023-05-09T13:00:43;96194.91;;;22.96;54.50
28927;BME280;16038;47.692;9.400;2023-05-09T13:03:22;96206.19;;;23.42;52.65